createdAt,value
2017-08-28T00:01:48.279Z,11.47
2017-08-28T00:04:16.310Z,11.90
2017-08-28T00:06:45.289Z,15.07
2017-08-28T00:09:13.337Z,12.93
2017-08-28T00:11:42.361Z,12.63
2017-08-28T00:14:10.389Z,12.50
2017-08-28T00:16:38.421Z,13.33
2017-08-28T00:19:06.577Z,12.40
2017-08-28T00:21:34.601Z,13.10
2017-08-28T00:24:03.653Z,13.47
2017-08-28T00:26:31.672Z,12.03
2017-08-28T00:28:59.693Z,12.43
2017-08-28T00:31:28.497Z,11.93
2017-08-28T00:33:56.565Z,12.20
2017-08-28T00:36:24.557Z,11.43
2017-08-28T00:38:52.605Z,11.83
2017-08-28T00:41:20.641Z,12.70
2017-08-28T00:43:48.835Z,12.93
2017-08-28T00:46:16.870Z,11.00
2017-08-28T00:48:44.893Z,12.83
2017-08-28T00:51:12.932Z,11.97
2017-08-28T00:53:41.016Z,12.43
2017-08-28T00:56:09.013Z,12.73
2017-08-28T00:58:37.033Z,12.10
2017-08-28T01:01:05.076Z,12.60
2017-08-28T01:03:33.101Z,11.27
2017-08-28T01:06:01.889Z,13.77
2017-08-28T01:08:29.960Z,13.23
2017-08-28T01:11:00.684Z,12.67
2017-08-28T01:13:35.501Z,14.87
2017-08-28T01:16:03.501Z,12.93
2017-08-28T01:18:31.548Z,13.30
2017-08-28T01:20:59.721Z,18.73
2017-08-28T01:23:27.750Z,12.70
2017-08-28T01:25:56.492Z,12.60
2017-08-28T01:28:25.288Z,11.33
2017-08-28T01:30:53.328Z,11.10
2017-08-28T01:33:21.368Z,10.53
2017-08-28T01:35:49.396Z,11.27
2017-08-28T01:38:18.789Z,10.80
2017-08-28T01:40:47.588Z,12.60
2017-08-28T01:43:15.620Z,11.43
2017-08-28T01:45:43.653Z,11.60
2017-08-28T01:48:11.684Z,12.90
2017-08-28T01:50:39.708Z,12.03
2017-08-28T01:53:07.740Z,12.50
2017-08-28T01:55:36.710Z,12.57
2017-08-28T01:58:05.505Z,13.03
2017-08-28T02:00:34.468Z,12.33
2017-08-28T02:03:02.516Z,12.17
2017-08-28T02:05:30.552Z,11.63
2017-08-28T02:07:58.576Z,12.20
2017-08-28T02:10:26.607Z,10.73
2017-08-28T02:12:54.640Z,10.97
2017-08-28T02:15:22.660Z,11.70
2017-08-28T02:30:59.869Z,10.70
2017-08-28T02:33:27.896Z,10.20
2017-08-28T02:35:55.925Z,11.53
2017-08-28T02:38:23.983Z,11.40
2017-08-28T02:40:51.996Z,11.70
2017-08-28T02:43:20.016Z,11.33
2017-08-28T02:45:48.059Z,12.43
2017-08-28T02:48:16.084Z,12.90
2017-08-28T02:50:44.888Z,11.70
2017-08-28T02:53:12.936Z,11.37
2017-08-28T02:55:40.968Z,12.37
2017-08-28T02:58:08.992Z,12.57
2017-08-28T03:00:37.028Z,14.23
2017-08-28T03:03:05.064Z,13.00
2017-08-28T03:05:33.099Z,14.07
2017-08-28T03:08:02.884Z,13.10
2017-08-28T03:10:30.907Z,12.33
2017-08-28T03:12:58.944Z,13.97
2017-08-28T03:15:26.991Z,13.47
2017-08-28T03:17:55.926Z,14.13
2017-08-28T03:20:23.939Z,12.60
2017-08-28T03:22:51.999Z,12.73
2017-08-28T03:25:20.036Z,11.80
2017-08-28T03:27:48.075Z,13.37
2017-08-28T03:30:16.116Z,13.43
2017-08-28T03:32:44.144Z,11.60
2017-08-28T03:35:12.176Z,10.70
2017-08-28T03:37:41.187Z,11.37
2017-08-28T03:40:09.984Z,13.63
2017-08-28T03:42:38.011Z,12.60
2017-08-28T03:45:06.059Z,12.77
2017-08-28T03:47:34.135Z,12.77
2017-08-28T03:50:02.167Z,19.83
2017-08-28T03:52:30.222Z,11.50
2017-08-28T03:54:59.003Z,12.60
2017-08-28T03:57:27.807Z,12.20
2017-08-28T03:59:55.863Z,13.37
2017-08-28T04:02:23.888Z,13.03
2017-08-28T04:04:51.907Z,13.27
2017-08-28T04:07:19.963Z,12.20
2017-08-28T04:09:48.311Z,15.03
2017-08-28T04:12:16.355Z,12.83
2017-08-28T04:14:44.395Z,12.77
2017-08-28T04:17:12.435Z,15.17
2017-08-28T04:19:40.487Z,12.00
2017-08-28T04:22:08.551Z,13.33
2017-08-28T04:24:36.576Z,11.90
2017-08-28T04:27:05.362Z,11.40
2017-08-28T04:29:33.416Z,11.77
2017-08-28T04:32:02.395Z,11.97
2017-08-28T04:34:30.419Z,12.70
2017-08-28T04:36:59.379Z,13.90
2017-08-28T04:39:29.162Z,13.33
2017-08-28T04:41:57.195Z,13.40
2017-08-28T04:44:25.255Z,17.27
2017-08-28T04:46:53.278Z,13.83
2017-08-28T04:49:21.342Z,12.80
2017-08-28T04:51:50.155Z,12.70
2017-08-28T04:54:18.183Z,13.40
2017-08-28T04:56:46.203Z,12.20
2017-08-28T04:59:14.274Z,14.80
2017-08-28T05:01:43.238Z,13.10
2017-08-28T05:04:11.266Z,12.87
2017-08-28T05:06:39.306Z,13.37
2017-08-28T05:09:07.362Z,14.27
2017-08-28T05:11:35.386Z,12.43
2017-08-28T05:14:04.062Z,12.30
2017-08-28T05:16:32.086Z,12.20
2017-08-28T05:19:00.126Z,12.23
2017-08-28T05:21:28.190Z,11.80
2017-08-28T05:23:57.230Z,12.50
2017-08-28T05:26:27.038Z,12.20
2017-08-28T05:28:55.058Z,11.90
2017-08-28T05:31:23.090Z,11.40
2017-08-28T05:33:51.874Z,12.87
2017-08-28T05:36:20.706Z,11.93
2017-08-28T05:38:48.746Z,12.53
2017-08-28T05:41:16.782Z,11.20
2017-08-28T05:43:44.838Z,12.53
2017-08-28T05:46:13.838Z,11.60
2017-08-28T05:48:42.836Z,12.70
2017-08-28T05:51:10.902Z,11.00
2017-08-28T05:53:38.942Z,11.80
2017-08-28T05:56:06.979Z,30.27
2017-08-28T05:58:35.031Z,11.50
2017-08-28T06:01:03.041Z,12.57
2017-08-28T06:03:31.070Z,10.50
2017-08-28T06:05:59.102Z,11.13
2017-08-28T06:08:29.158Z,12.10
2017-08-28T06:10:57.182Z,11.47
2017-08-28T06:13:25.238Z,11.37
2017-08-28T06:15:53.253Z,10.70
2017-08-28T06:18:21.270Z,9.37
2017-08-28T06:20:49.299Z,10.30
2017-08-28T06:23:18.297Z,8.73
2017-08-28T06:25:46.314Z,9.50
2017-08-28T06:28:14.369Z,10.20
2017-08-28T06:30:44.337Z,11.47
2017-08-28T06:33:16.001Z,9.77
2017-08-28T06:35:44.021Z,9.73
2017-08-28T06:38:12.049Z,9.67
2017-08-28T06:40:40.998Z,8.90
2017-08-28T06:43:09.044Z,9.37
2017-08-28T06:45:38.938Z,9.23
2017-08-28T06:48:07.722Z,10.53
2017-08-28T06:50:35.737Z,10.23
2017-08-28T06:53:03.758Z,8.80
2017-08-28T06:55:32.561Z,8.77
2017-08-28T06:58:02.317Z,8.77
2017-08-28T07:00:30.330Z,9.47
2017-08-28T07:02:58.377Z,9.23
2017-08-28T07:05:26.393Z,10.03
2017-08-28T07:07:54.401Z,9.40
2017-08-28T07:10:22.665Z,10.07
2017-08-28T07:12:50.653Z,8.97
2017-08-28T07:15:18.673Z,9.27
2017-08-28T07:17:46.721Z,11.53
2017-08-28T07:20:14.761Z,9.70
2017-08-28T07:22:42.785Z,16.13
2017-08-28T07:25:11.589Z,9.70
2017-08-28T07:27:39.601Z,9.33
2017-08-28T07:30:07.625Z,9.77
2017-08-28T07:32:36.557Z,9.53
2017-08-28T07:35:04.581Z,10.03
2017-08-28T07:37:32.592Z,9.93
2017-08-28T07:40:01.597Z,10.10
2017-08-28T07:42:29.609Z,9.50
2017-08-28T22:48:44.265Z,6.03
2017-08-28T22:51:12.285Z,5.47
2017-08-28T22:53:40.313Z,5.90
2017-08-28T22:56:08.352Z,6.70
2017-08-28T22:58:36.385Z,4.97
2017-08-28T23:01:04.409Z,5.97
2017-08-28T23:03:33.476Z,5.07
2017-08-28T23:06:01.485Z,4.87
2017-08-28T23:08:30.272Z,5.00
2017-08-28T23:10:59.076Z,5.80
2017-08-28T23:13:27.105Z,8.43
2017-08-28T23:15:56.098Z,6.37
2017-08-28T23:18:24.196Z,5.50
2017-08-28T23:20:52.204Z,5.27
2017-08-28T23:23:21.237Z,5.60
2017-08-28T23:25:49.272Z,5.13
2017-08-28T23:28:17.300Z,4.37
2017-08-28T23:30:45.324Z,6.97
2017-08-28T23:33:13.377Z,5.77
2017-08-28T23:35:41.401Z,4.50
2017-08-28T23:38:09.428Z,7.13
2017-08-28T23:40:39.372Z,4.80
2017-08-28T23:43:08.352Z,4.43
2017-08-28T23:45:36.396Z,6.20
2017-08-28T23:48:04.416Z,4.87
2017-08-28T23:50:33.197Z,5.50
2017-08-28T23:53:01.216Z,5.10
2017-08-28T23:55:29.268Z,5.10
2017-08-28T23:57:57.296Z,4.97
